Time;durP1;ratioP1;P1;durP2;ratioP2;P2;SDS_P1;SDS_P2;PMS_P1;PMS_P2;Temp;Humidity;BMP_temperature;BMP_pressure;BME280_temperature;BME280_humidity;BME280_pressure;Samples;Min_cycle;Max_cycle;Signal;HPM_P1;HPM_P2
2022/04/30 00:00:40;;;;;;;16.77;9.43;;;;;;;8.75;63.66;101112.58;1440038;85;21530;-93
2022/04/30 00:08:08;;;;;;;15.73;8.73;;;;;;;8.71;64.00;101101.05;1385229;84;21717;31
2022/04/30 00:10:38;;;;;;;15.27;9.43;;;;;;;8.66;64.25;101109.79;1386262;85;21676;-89
2022/04/30 00:13:10;;;;;;;13.15;7.90;;;;;;;8.63;64.27;101107.39;1398684;85;21537;-92
2022/04/30 00:15:42;;;;;;;13.23;8.87;;;;;;;8.61;63.82;101110.16;1391577;84;23240;-90
2022/04/30 00:20:45;;;;;;;17.10;8.45;;;;;;;8.53;64.58;101108.59;1411910;85;23977;31
2022/04/30 00:23:19;;;;;;;17.40;9.10;;;;;;;8.48;64.71;101108.92;1390084;85;25440;31
2022/04/30 00:25:42;;;;;;;12.15;8.60;;;;;;;8.48;64.43;101104.97;1395794;85;21679;31
2022/04/30 00:28:17;;;;;;;11.05;7.95;;;;;;;8.50;64.83;101103.55;1406388;85;21676;31
2022/04/30 00:33:14;;;;;;;12.43;9.17;;;;;;;8.41;65.54;101104.26;1359084;88;21618;-86
2022/04/30 00:35:42;;;;;;;11.77;8.20;;;;;;;8.38;65.20;101102.66;1384726;87;21470;-89
2022/04/30 00:40:43;;;;;;;10.77;8.03;;;;;;;8.37;65.34;101103.59;1408592;85;23549;31
2022/04/30 00:43:13;;;;;;;12.23;8.23;;;;;;;8.37;64.91;101102.28;1408092;84;21515;-86
2022/04/30 00:45:47;;;;;;;11.08;7.87;;;;;;;8.37;65.08;101099.64;1415442;84;23300;31
2022/04/30 00:48:21;;;;;;;9.40;8.20;;;;;;;8.30;66.22;101100.59;1417669;85;21596;-93
2022/04/30 00:51:09;;;;;;;13.40;7.77;;;;;;;8.27;66.13;101104.78;1407889;86;21592;-94
2022/04/30 00:53:46;;;;;;;12.23;7.60;;;;;;;8.24;65.97;101099.75;1412709;84;21803;-92
2022/04/30 00:56:17;;;;;;;14.60;8.03;;;;;;;8.23;65.66;101106.44;1374248;85;24562;-93
2022/04/30 01:01:28;;;;;;;17.30;8.73;;;;;;;8.18;66.60;101113.39;1417925;84;22023;-91
2022/04/30 01:03:55;;;;;;;;;;;;;;;8.18;66.40;101103.33;1422115;86;22679;-93
2022/04/30 01:06:27;;;;;;;10.40;8.00;;;;;;;8.18;66.85;101103.33;1401743;88;20216;-92
2022/04/30 01:08:56;;;;;;;14.30;8.73;;;;;;;8.19;66.50;101103.20;1401449;86;21478;-92
2022/04/30 01:11:24;;;;;;;12.43;8.50;;;;;;;8.19;66.66;101099.73;1407459;83;21658;31
2022/04/30 01:13:52;;;;;;;11.30;7.63;;;;;;;8.18;66.81;101097.58;1393890;88;21275;-92
2022/04/30 01:18:49;;;;;;;18.23;9.57;;;;;;;8.29;66.72;101092.81;1408371;85;21601;-87
2022/04/30 01:26:23;;;;;;;15.27;9.33;;;;;;;8.33;66.86;101092.45;1406449;86;23819;-94
2022/04/30 01:37:23;;;;;;;17.57;10.77;;;;;;;8.54;66.80;101093.11;1378830;85;21723;31
2022/04/30 01:39:57;;;;;;;17.03;10.23;;;;;;;8.50;67.20;101095.63;1377675;89;21347;-94
2022/04/30 01:44:56;;;;;;;15.53;9.97;;;;;;;8.33;68.13;101094.25;1406619;85;21676;31
2022/04/30 01:47:28;;;;;;;15.83;8.83;;;;;;;8.32;67.78;101097.86;1405476;84;22596;31
2022/04/30 01:49:55;;;;;;;13.17;8.67;;;;;;;8.33;67.79;101094.25;1400032;84;23457;-89
2022/04/30 01:52:29;;;;;;;10.77;8.37;;;;;;;8.33;67.68;101091.61;1329076;91;21688;31
2022/04/30 01:54:59;;;;;;;15.77;9.13;;;;;;;8.32;67.61;101091.27;1367777;86;21583;-93
2022/04/30 01:57:30;;;;;;;21.80;8.73;;;;;;;8.28;68.05;101095.07;1383224;87;21357;-91
2022/04/30 02:00:09;;;;;;;13.17;9.37;;;;;;;8.27;67.74;101093.40;1391723;85;21578;31
2022/04/30 02:02:43;;;;;;;15.80;8.60;;;;;;;8.23;68.07;101091.94;1372318;87;21446;-92
2022/04/30 02:05:19;;;;;;;14.03;9.57;;;;;;;8.17;68.01;101095.04;1398802;85;21729;31
2022/04/30 02:08:00;;;;;;;12.83;8.57;;;;;;;8.07;68.82;101096.22;1391534;85;21584;31
2022/04/30 02:13:05;;;;;;;11.63;8.55;;;;;;;7.99;68.49;101086.23;1392863;85;21641;31
2022/04/30 02:15:35;;;;;;;12.57;8.50;;;;;;;8.01;68.15;101091.41;1366642;85;21508;31
2022/04/30 02:18:04;;;;;;;13.90;9.03;;;;;;;7.99;68.45;101084.92;1395066;85;21618;31
2022/04/30 02:20:34;;;;;;;14.60;9.47;;;;;;;7.94;68.67;101085.77;1395277;89;21361;-90
2022/04/30 02:23:09;;;;;;;10.77;8.10;;;;;;;7.91;68.45;101080.70;1387118;88;21518;-91
2022/04/30 02:25:41;;;;;;;14.47;8.90;;;;;;;7.89;68.62;101079.99;1385544;89;21375;-91
2022/04/30 02:28:10;;;;;;;13.10;8.13;;;;;;;7.85;68.69;101079.39;1363477;90;21398;-92
2022/04/30 02:30:42;;;;;;;18.00;8.27;;;;;;;7.85;68.86;101075.44;1394709;88;21258;-94
2022/04/30 02:33:11;;;;;;;14.13;7.90;;;;;;;7.85;68.57;101075.44;1404796;86;22819;-91
2022/04/30 02:35:43;;;;;;;15.13;9.13;;;;;;;7.82;68.82;101070.36;1380235;88;22203;-90
2022/04/30 02:38:11;;;;;;;15.70;9.10;;;;;;;7.80;69.33;101067.50;1380262;89;21488;-91
2022/04/30 02:40:41;;;;;;;14.30;8.93;;;;;;;7.80;68.62;101070.98;1390317;85;21679;-93
2022/04/30 02:43:15;;;;;;;12.77;8.43;;;;;;;7.81;69.40;101075.28;1381374;86;22589;-87
2022/04/30 02:45:47;;;;;;;12.70;8.43;;;;;;;7.81;69.40;101075.28;1402651;85;21752;31
2022/04/30 02:48:15;;;;;;;21.87;9.53;;;;;;;7.74;69.01;101071.88;1398360;85;21534;-92
2022/04/30 02:50:45;;;;;;;13.20;9.97;;;;;;;7.66;69.32;101071.98;1403161;84;21714;31
2022/04/30 02:53:13;;;;;;;14.90;8.90;;;;;;;7.60;69.76;101075.08;1388994;86;21596;31
2022/04/30 02:55:42;;;;;;;18.10;10.63;;;;;;;7.60;69.50;101076.39;1407305;86;21713;31
2022/04/30 03:01:08;;;;;;;16.67;10.40;;;;;;;7.58;69.78;101060.33;1420017;85;21889;-93
2022/04/30 03:03:41;;;;;;;13.77;8.70;;;;;;;7.63;69.94;101063.00;1401256;87;21412;-92
2022/04/30 03:06:09;;;;;;;13.00;8.97;;;;;;;7.63;70.12;101061.68;1396050;88;21264;-91
2022/04/30 03:11:09;;;;;;;14.07;9.03;;;;;;;7.64;69.61;101058.08;1390806;86;25007;-94
2022/04/30 03:13:37;;;;;;;12.25;8.58;;;;;;;7.65;69.68;101065.50;1417229;84;21686;-91
2022/04/30 03:21:44;;;;;;;12.47;8.00;;;;;;;7.55;69.65;101074.57;1436638;86;21414;-90
2022/04/30 03:24:32;;;;;;;;;;;;;;;;;;;;;
2022/04/30 03:26:49;;;;;;;17.47;8.77;;;;;;;7.47;69.94;101072.97;1360831;88;21360;-90
2022/04/30 03:29:18;;;;;;;15.90;8.30;;;;;;;7.44;70.12;101075.34;1403831;88;21287;-93
2022/04/30 03:31:45;;;;;;;12.47;8.93;;;;;;;7.40;70.12;101066.00;1401935;88;21301;-93
2022/04/30 03:36:43;;;;;;;15.77;8.43;;;;;;;7.43;69.79;101072.84;1419351;86;22526;-90
2022/04/30 03:39:11;;;;;;;13.10;7.73;;;;;;;7.42;69.89;101075.09;1426526;87;21375;-92
2022/04/30 03:41:38;;;;;;;14.80;9.17;;;;;;;7.41;70.28;101069.47;1386223;85;21771;-89
2022/04/30 03:44:07;;;;;;;12.33;8.47;;;;;;;7.35;70.69;101072.29;1422441;84;21557;31
2022/04/30 03:46:43;;;;;;;13.17;8.13;;;;;;;7.32;70.77;101072.29;1394316;85;21515;31
2022/04/30 03:49:10;;;;;;;12.93;9.30;;;;;;;7.32;70.90;101071.45;1379642;87;21680;-90
2022/04/30 03:54:11;;;;;;;16.17;9.20;;;;;;;7.35;71.17;101068.11;1352915;88;24483;31
2022/04/30 03:56:39;;;;;;;14.63;9.45;;;;;;;7.42;71.31;101076.41;1372897;88;21584;-92
2022/04/30 03:59:06;;;;;;;12.07;8.67;;;;;;;7.46;71.47;101076.08;1371767;90;21354;-94
2022/04/30 04:01:34;;;;;;;14.80;9.53;;;;;;;7.52;71.45;101070.84;1377436;90;21392;-92
2022/04/30 04:06:31;;;;;;;13.97;8.97;;;;;;;7.59;71.73;101079.12;1360753;89;21680;-90
2022/04/30 04:08:59;;;;;;;17.33;9.00;;;;;;;7.63;71.68;101080.13;1301317;97;21429;-89
2022/04/30 04:11:30;;;;;;;14.07;8.73;;;;;;;7.69;71.55;101078.34;1306219;94;21506;-89
2022/04/30 04:19:30;;;;;;;16.53;10.20;;;;;;;8.01;71.01;101087.45;1337036;92;21238;-93
2022/04/30 04:21:57;;;;;;;16.60;9.63;;;;;;;8.08;71.03;101088.18;1361322;90;22227;-92
2022/04/30 04:29:40;;;;;;;14.47;8.77;;;;;;;8.17;71.77;101100.31;1369742;91;21651;-90
2022/04/30 04:32:07;;;;;;;14.97;9.03;;;;;;;8.22;72.14;101098.17;1392058;88;21346;-93
2022/04/30 04:34:34;;;;;;;12.10;9.30;;;;;;;8.30;71.53;101101.08;1362521;91;22424;-90
2022/04/30 04:37:02;;;;;;;13.40;9.30;;;;;;;8.42;71.53;101096.21;1390086;89;21219;-90
2022/04/30 04:39:29;;;;;;;12.63;9.13;;;;;;;8.52;71.39;101091.92;1378584;90;21338;-92
2022/04/30 04:41:56;;;;;;;15.40;9.40;;;;;;;8.64;71.70;101097.22;1347108;92;22419;-95
2022/04/30 04:44:23;;;;;;;12.27;8.50;;;;;;;8.76;71.04;101100.22;1372499;87;21661;-89
2022/04/30 04:46:52;;;;;;;12.37;8.67;;;;;;;8.85;71.11;101092.89;1379942;85;22960;31
2022/04/30 04:49:23;;;;;;;16.20;9.27;;;;;;;8.92;71.09;101099.39;1379047;86;21689;31
2022/04/30 04:51:57;;;;;;;13.53;9.60;;;;;;;9.04;70.62;101095.77;1406166;86;21596;31
2022/04/30 04:54:24;;;;;;;13.47;8.30;;;;;;;9.15;70.13;101098.02;1351320;92;21280;-94
2022/04/30 04:56:51;;;;;;;13.33;8.77;;;;;;;9.23;70.13;101091.66;1330662;93;21281;-90
2022/04/30 04:59:18;;;;;;;19.50;11.17;;;;;;;9.33;69.89;101097.89;1329929;93;21385;-90
2022/04/30 05:01:47;;;;;;;15.03;10.23;;;;;;;9.42;69.31;101098.47;1336717;91;21340;-90
2022/04/30 05:04:15;;;;;;;17.27;9.57;;;;;;;9.54;69.00;101098.44;1323436;93;21354;-88
2022/04/30 05:06:42;;;;;;;13.40;8.53;;;;;;;9.65;68.56;101094.45;1327168;93;22848;-88
2022/04/30 05:09:09;;;;;;;13.00;7.37;;;;;;;9.78;68.17;101097.77;1336469;92;21288;-90
2022/04/30 05:11:37;;;;;;;14.27;8.23;;;;;;;9.90;67.80;101098.08;1329089;93;21547;-90
2022/04/30 05:14:04;;;;;;;12.80;7.43;;;;;;;10.01;67.58;101094.55;1335283;92;21229;-88
2022/04/30 05:16:32;;;;;;;11.87;7.63;;;;;;;10.13;67.31;101101.94;1337821;92;22241;-94
2022/04/30 05:18:59;;;;;;;13.80;7.90;;;;;;;10.26;66.98;101093.31;1339834;92;21303;-93
2022/04/30 05:21:26;;;;;;;11.33;7.30;;;;;;;10.42;66.50;101094.72;1339570;93;22974;-91
2022/04/30 05:23:53;;;;;;;12.27;8.20;;;;;;;10.54;65.99;101094.98;1339425;92;21370;-92
2022/04/30 05:26:20;;;;;;;13.93;7.60;;;;;;;10.64;65.71;101094.53;1330649;93;21259;-90
2022/04/30 05:28:47;;;;;;;9.83;6.97;;;;;;;10.78;65.34;101091.54;1331139;93;22146;-92
2022/04/30 05:31:15;;;;;;;16.30;7.70;;;;;;;10.87;64.67;101091.72;1311371;95;21333;-92
2022/04/30 05:33:42;;;;;;;12.27;7.13;;;;;;;11.00;64.40;101091.84;1336184;93;22334;-86
2022/04/30 05:36:09;;;;;;;10.10;6.63;;;;;;;11.07;63.47;101092.13;1335757;93;21363;-90
2022/04/30 05:38:37;;;;;;;14.47;6.83;;;;;;;11.22;63.72;101092.13;1337078;92;21296;-91
2022/04/30 05:41:04;;;;;;;12.37;7.87;;;;;;;11.38;63.60;101097.39;1337430;91;21339;-92
2022/04/30 05:43:31;;;;;;;10.27;7.00;;;;;;;11.52;62.68;101094.34;1334863;93;21465;-88
2022/04/30 05:45:58;;;;;;;11.27;7.47;;;;;;;11.57;61.99;101097.42;1333272;93;21421;-88
2022/04/30 05:48:26;;;;;;;11.10;6.97;;;;;;;11.68;62.00;101090.67;1320302;94;22204;-88
2022/04/30 05:50:54;;;;;;;8.23;6.50;;;;;;;11.87;61.61;101090.34;1334609;93;22233;-87
2022/04/30 05:53:22;;;;;;;10.10;6.67;;;;;;;12.06;61.57;101092.17;1364357;89;21383;-88
2022/04/30 05:55:49;;;;;;;9.33;6.27;;;;;;;12.19;61.15;101097.50;1376082;88;21363;-89
2022/04/30 05:58:16;;;;;;;6.63;5.13;;;;;;;12.28;60.33;101097.64;1355544;91;21476;-90
2022/04/30 06:00:43;;;;;;;7.23;5.87;;;;;;;12.39;59.20;101096.16;1350147;92;21214;-88
2022/04/30 06:03:11;;;;;;;14.43;6.23;;;;;;;12.59;60.04;101091.13;1374042;90;21339;-89
2022/04/30 06:05:38;;;;;;;9.60;5.80;;;;;;;12.82;59.83;101100.91;1369532;90;22420;-88
2022/04/30 06:08:06;;;;;;;7.50;5.70;;;;;;;13.03;59.13;101091.87;1351492;91;21340;-87
2022/04/30 06:10:34;;;;;;;11.67;6.70;;;;;;;13.16;58.04;101087.06;1368887;90;22240;-87
2022/04/30 06:13:01;;;;;;;7.57;5.27;;;;;;;13.27;57.32;101094.03;1375377;89;22137;-87
2022/04/30 06:15:35;;;;;;;7.47;5.77;;;;;;;13.25;56.69;101090.64;1369015;89;21341;-87
2022/04/30 06:18:02;;;;;;;8.83;5.60;;;;;;;13.21;56.95;101097.26;1373625;90;21301;-88
2022/04/30 06:20:40;;;;;;;8.40;6.27;;;;;;;13.33;56.53;101105.89;1369568;90;21339;-88
2022/04/30 06:23:08;;;;;;;12.57;6.57;;;;;;;13.37;56.03;101097.45;1332040;92;21564;-89
2022/04/30 06:25:36;;;;;;;9.47;5.53;;;;;;;13.49;56.05;101096.28;1334644;92;21401;-88
2022/04/30 06:28:03;;;;;;;9.23;5.90;;;;;;;13.54;54.89;101097.14;1372461;90;22233;-89
2022/04/30 06:30:31;;;;;;;16.40;6.33;;;;;;;13.71;55.73;101092.32;1365317;90;21311;-87
2022/04/30 06:32:58;;;;;;;10.43;5.50;;;;;;;13.86;54.51;101099.27;1368935;90;21272;-88
2022/04/30 06:35:26;;;;;;;9.30;5.60;;;;;;;14.06;55.55;101095.12;1365482;90;22249;-89
2022/04/30 06:37:53;;;;;;;8.53;5.20;;;;;;;14.15;54.40;101091.52;1351484;93;21250;-88
2022/04/30 06:40:20;;;;;;;11.77;5.53;;;;;;;14.27;53.85;101094.77;1374514;88;22469;-84
2022/04/30 06:42:47;;;;;;;6.83;5.47;;;;;;;14.38;54.15;101090.02;1368130;90;21504;-85
2022/04/30 06:45:16;;;;;;;7.40;4.73;;;;;;;14.59;54.42;101087.05;1375554;90;21440;-88
2022/04/30 06:47:44;;;;;;;9.67;4.07;;;;;;;14.78;53.65;101091.30;1372324;90;21472;-88
2022/04/30 06:50:11;;;;;;;8.73;4.40;;;;;;;14.95;53.90;101080.72;1373480;90;21436;-86
2022/04/30 06:57:07;;;;;;;11.07;4.07;;;;;;;15.19;54.07;101082.63;1371468;89;22203;-85
2022/04/30 06:57:53;;;;;;;6.90;4.17;;;;;;;15.50;52.73;101085.55;1356216;90;21327;-85
2022/04/30 07:03:08;;;;;;;5.40;4.00;;;;;;;15.73;51.83;101078.61;1352309;91;21350;-86
2022/04/30 07:05:35;;;;;;;9.47;4.00;;;;;;;15.83;51.73;101084.31;1354289;91;21440;-88
2022/04/30 07:08:02;;;;;;;5.80;3.63;;;;;;;15.96;51.55;101088.64;1328821;93;21412;-88
2022/04/30 07:10:30;;;;;;;4.10;3.40;;;;;;;16.08;51.55;101088.63;1335634;92;22364;-86
2022/04/30 07:12:57;;;;;;;3.77;3.23;;;;;;;16.17;51.16;101086.31;1321773;93;22289;-86
2022/04/30 07:15:24;;;;;;;4.03;3.17;;;;;;;16.33;51.00;101090.79;1348312;91;22317;-86
2022/04/30 07:17:51;;;;;;;4.90;3.47;;;;;;;16.53;50.61;101086.42;1342314;91;21500;-87
2022/04/30 07:20:18;;;;;;;9.13;3.13;;;;;;;16.68;50.12;101089.54;1352556;91;21280;-87
2022/04/30 07:22:45;;;;;;;8.30;2.70;;;;;;;16.77;49.16;101084.20;1339267;91;22292;-87
2022/04/30 07:25:12;;;;;;;7.67;3.27;;;;;;;16.89;47.60;101085.52;1341801;93;22374;-87
2022/04/30 07:27:39;;;;;;;4.77;2.90;;;;;;;16.86;48.37;101089.37;1350464;92;21521;-87
2022/04/30 07:30:07;;;;;;;5.43;3.10;;;;;;;17.04;48.96;101093.14;1349500;92;21280;-87
2022/04/30 07:32:34;;;;;;;4.47;3.20;;;;;;;17.20;48.38;101085.52;1351557;92;21406;-87
2022/04/30 07:35:01;;;;;;;4.83;3.40;;;;;;;17.37;47.88;101078.25;1349716;91;21521;-84
2022/04/30 07:37:28;;;;;;;7.83;3.00;;;;;;;17.47;47.39;101073.52;1350078;91;21473;-84
2022/04/30 07:39:56;;;;;;;5.93;3.60;;;;;;;17.50;46.24;101078.52;1349100;91;21458;-85
2022/04/30 07:42:23;;;;;;;10.43;3.27;;;;;;;17.61;47.24;101074.61;1351944;91;21374;-85
2022/04/30 07:44:50;;;;;;;10.23;4.60;;;;;;;17.63;46.28;101069.05;1334199;92;21280;-85
2022/04/30 07:47:17;;;;;;;4.70;3.40;;;;;;;17.59;46.31;101069.41;1349954;91;21339;-84
2022/04/30 07:49:44;;;;;;;6.67;3.60;;;;;;;17.49;44.24;101068.83;1335616;92;22845;-84
2022/04/30 07:52:12;;;;;;;5.47;3.37;;;;;;;17.24;44.97;101069.98;1351037;91;21438;-85
2022/04/30 07:54:45;;;;;;;4.93;3.80;;;;;;;17.55;46.48;101063.25;1350724;91;22449;-87
2022/04/30 07:57:12;;;;;;;8.43;3.90;;;;;;;17.81;47.13;101065.11;1360519;90;21324;-83
2022/04/30 07:59:40;;;;;;;6.43;4.43;;;;;;;17.91;46.32;101069.38;1359522;91;21325;-87
2022/04/30 08:02:07;;;;;;;8.63;3.70;;;;;;;18.06;45.72;101062.21;1349119;91;21339;-86
2022/04/30 08:04:34;;;;;;;5.43;3.90;;;;;;;18.31;46.47;101064.16;1356988;91;21295;-88
2022/04/30 08:07:01;;;;;;;13.00;5.00;;;;;;;18.55;45.79;101066.25;1345676;91;21428;-88
2022/04/30 08:09:28;;;;;;;11.70;3.77;;;;;;;18.57;43.09;101066.91;1347549;91;22213;-89
2022/04/30 08:11:55;;;;;;;4.53;3.23;;;;;;;18.39;41.36;101060.06;1329263;93;22160;-88
2022/04/30 08:14:22;;;;;;;6.57;3.77;;;;;;;18.43;43.06;101055.16;1346443;90;21413;-89
2022/04/30 08:16:49;;;;;;;6.63;3.50;;;;;;;18.65;44.60;101062.29;1350386;92;21265;-88
2022/04/30 08:19:16;;;;;;;5.50;3.13;;;;;;;18.96;43.93;101055.06;1356892;91;21316;-88
2022/04/30 08:21:46;;;;;;;8.13;3.33;;;;;;;19.15;41.38;101054.48;1341707;93;21391;-90
2022/04/30 08:24:12;;;;;;;6.70;3.57;;;;;;;18.63;39.91;101050.08;1358878;91;21450;-89
2022/04/30 08:26:39;;;;;;;5.90;3.17;;;;;;;18.75;41.36;101049.14;1354715;91;21339;-88
2022/04/30 08:29:07;;;;;;;5.08;3.65;;;;;;;18.75;41.17;101050.48;1341547;91;22182;-88
2022/04/30 08:31:34;;;;;;;9.60;3.92;;;;;;;19.04;41.06;101057.65;1349684;92;22277;-88
2022/04/30 08:34:01;;;;;;;8.70;3.60;;;;;;;19.05;41.94;101057.99;1340936;93;21221;-89
2022/04/30 08:36:28;;;;;;;3.87;3.08;;;;;;;19.31;41.74;101058.30;1358458;91;21354;-89
2022/04/30 08:38:55;;;;;;;11.18;3.62;;;;;;;19.42;40.07;101052.09;1360606;90;21302;-88
2022/04/30 08:41:23;;;;;;;5.70;3.40;;;;;;;19.67;40.62;101045.36;1359575;90;22292;-88
2022/04/30 08:43:50;;;;;;;5.40;3.02;;;;;;;19.98;41.69;101044.19;1350151;91;21250;-87
2022/04/30 08:46:20;;;;;;;5.65;2.70;;;;;;;20.13;40.05;101045.44;1338396;92;21356;-86
2022/04/30 08:48:48;;;;;;;;;;;;;;;20.12;37.24;101045.12;1345054;92;21398;-87
2022/04/30 08:51:16;;;;;;;4.97;2.65;;;;;;;20.36;37.83;101037.12;1344051;90;20298;-88
2022/04/30 08:53:43;;;;;;;4.97;3.00;;;;;;;20.43;36.89;101037.48;1347009;91;22286;-88
2022/04/30 08:56:11;;;;;;;4.22;3.00;;;;;;;20.09;35.24;101042.31;1352805;91;21317;-88
2022/04/30 08:58:38;;;;;;;7.97;3.60;;;;;;;20.09;38.43;101048.20;1359606;91;21538;-87
2022/04/30 09:01:07;;;;;;;6.17;3.98;;;;;;;20.27;38.33;101038.61;1351625;92;21317;-88
2022/04/30 09:03:36;;;;;;;6.80;3.27;;;;;;;20.55;38.61;101034.27;1355432;90;21362;-90
2022/04/30 09:06:04;;;;;;;5.53;3.20;;;;;;;20.46;34.36;101028.20;1355321;91;22311;-86
2022/04/30 09:08:32;;;;;;;4.08;2.80;;;;;;;20.42;34.65;101021.53;1337692;94;21377;-86
2022/04/30 09:11:08;;;;;;;9.93;3.37;;;;;;;20.60;36.56;101023.23;1325541;94;21303;-86
2022/04/30 09:13:46;;;;;;;6.40;3.80;;;;;;;20.81;36.71;101018.78;1344290;92;21339;-87
2022/04/30 09:16:20;;;;;;;9.70;3.30;;;;;;;21.07;35.18;101014.83;1341136;92;21487;-86
2022/04/30 09:18:49;;;;;;;5.78;3.05;;;;;;;21.34;35.33;101005.47;1352293;92;21287;-86
2022/04/30 09:21:17;;;;;;;3.87;3.25;;;;;;;21.22;32.51;101008.45;1328913;92;22418;-85
2022/04/30 09:23:45;;;;;;;14.25;4.12;;;;;;;21.27;31.70;101007.34;1353914;91;21347;-85
2022/04/30 09:26:13;;;;;;;4.28;3.65;;;;;;;21.43;32.91;101003.44;1358409;91;21361;-85
2022/04/30 09:28:42;;;;;;;8.90;3.47;;;;;;;21.29;31.52;100997.17;1355571;91;21363;-85
2022/04/30 09:31:16;;;;;;;8.25;3.58;;;;;;;21.40;34.10;101000.64;1344906;92;21265;-85
2022/04/30 09:33:56;;;;;;;7.08;3.35;;;;;;;21.67;34.14;101000.69;1353672;90;21354;-85
2022/04/30 09:39:17;;;;;;;8.05;3.67;;;;;;;22.50;31.44;100998.32;1346947;92;21488;-85
2022/04/30 09:41:46;;;;;;;3.65;2.85;;;;;;;22.74;31.58;100991.38;1357579;92;22298;-85
2022/04/30 09:44:16;;;;;;;9.33;3.72;;;;;;;22.39;30.40;100994.41;1361291;91;21323;-86
2022/04/30 09:46:43;;;;;;;7.55;3.22;;;;;;;22.54;31.55;100990.10;1360028;91;21444;-86
2022/04/30 09:54:47;;;;;;;10.82;4.33;;;;;;;23.41;30.85;100978.34;1356093;91;21436;-86
2022/04/30 09:57:15;;;;;;;10.15;3.20;;;;;;;23.68;30.51;100976.28;1348357;91;21488;-86
2022/04/30 09:59:44;;;;;;;8.35;3.95;;;;;;;23.97;29.53;100974.80;1316424;92;21472;-85
2022/04/30 10:02:16;;;;;;;6.03;3.90;;;;;;;24.12;29.16;100976.31;1341639;94;21488;-86
2022/04/30 10:04:45;;;;;;;4.72;2.70;;;;;;;24.17;28.67;100975.95;1342643;93;21469;-86
2022/04/30 10:07:16;;;;;;;6.60;3.62;;;;;;;23.18;26.08;100972.98;1342417;92;21480;-86
2022/04/30 10:10:24;;;;;;;5.12;3.42;;;;;;;23.24;29.04;100979.39;1348816;93;21251;-84
2022/04/30 10:13:11;;;;;;;5.00;3.50;;;;;;;23.49;29.48;100970.50;1349478;91;21288;-84
2022/04/30 10:15:57;;;;;;;7.47;4.47;;;;;;;23.65;29.44;100969.97;1338934;92;21524;-84
2022/04/30 10:18:41;;;;;;;8.43;3.52;;;;;;;23.90;28.66;100967.78;1339517;96;21265;-84
2022/04/30 10:21:06;;;;;;;8.98;3.50;;;;;;;24.06;28.03;100967.22;1337466;91;21312;-84
2022/04/30 10:23:33;;;;;;;9.68;3.92;;;;;;;23.75;28.68;100953.27;1337013;92;21362;-84
2022/04/30 10:26:07;;;;;;;6.53;3.10;;;;;;;23.62;28.59;100960.42;1343224;93;21365;-85
2022/04/30 10:28:34;;;;;;;23.32;10.25;;;;;;;23.80;29.06;100958.31;1338676;92;22301;-84
2022/04/30 10:31:12;;;;;;;4.55;3.27;;;;;;;24.01;29.40;100964.35;1329906;92;21311;-84
2022/04/30 10:33:51;;;;;;;7.53;4.28;;;;;;;23.65;26.52;100955.11;1335824;93;21281;-84
2022/04/30 10:36:21;;;;;;;6.63;4.50;;;;;;;23.07;28.41;100952.08;1341872;91;21458;-85
2022/04/30 10:38:59;;;;;;;9.13;3.72;;;;;;;23.24;28.34;100948.34;1325724;94;22374;-83
2022/04/30 10:41:26;;;;;;;5.58;3.37;;;;;;;23.38;28.38;100949.07;1322747;92;21478;-85
2022/04/30 10:44:02;;;;;;;8.28;3.15;;;;;;;23.69;26.70;100946.02;1332609;92;21355;-85
2022/04/30 10:46:38;;;;;;;12.37;3.62;;;;;;;23.81;26.29;100943.74;1325427;92;22176;-85
2022/04/30 10:49:06;;;;;;;4.22;2.98;;;;;;;23.96;26.00;100942.03;1335556;92;21341;-82
2022/04/30 10:51:40;;;;;;;4.22;2.85;;;;;;;23.97;25.06;100934.77;1340678;94;21326;-82
2022/04/30 10:54:13;;;;;;;3.20;2.90;;;;;;;23.70;25.20;100930.95;1329991;93;21281;-81
2022/04/30 10:56:40;;;;;;;10.50;4.15;;;;;;;23.85;25.02;100934.66;1393320;88;21246;-81
2022/04/30 10:59:08;;;;;;;6.85;3.33;;;;;;;23.86;24.96;100933.62;1360900;90;22300;-82
2022/04/30 11:01:35;;;;;;;4.28;3.08;;;;;;;23.83;25.23;100934.90;1394338;88;21338;-83
2022/04/30 11:04:03;;;;;;;8.80;3.52;;;;;;;23.63;25.03;100930.17;1407585;88;21380;-83
2022/04/30 11:06:33;;;;;;;4.42;3.42;;;;;;;23.33;25.23;100925.44;1387788;89;21232;-83
2022/04/30 11:09:05;;;;;;;12.53;3.70;;;;;;;23.18;25.35;100918.98;1394347;89;21457;-83
2022/04/30 11:11:35;;;;;;;5.90;3.30;;;;;;;23.18;26.00;100919.52;1365187;88;21226;-83
2022/04/30 11:14:11;;;;;;;9.30;3.15;;;;;;;23.10;25.33;100921.13;1382011;87;22332;-83
2022/04/30 11:16:46;;;;;;;6.65;3.40;;;;;;;22.90;25.36;100915.33;1389910;88;21235;-82
2022/04/30 11:19:13;;;;;;;5.65;3.17;;;;;;;22.84;25.64;100913.47;1356211;91;21454;-83
2022/04/30 11:21:53;;;;;;;5.17;3.87;;;;;;;22.38;25.80;100917.22;1353240;91;21258;-82
2022/04/30 11:24:30;;;;;;;6.87;3.33;;;;;;;21.99;26.50;100913.59;1351855;91;21207;-84
2022/04/30 11:27:03;;;;;;;11.97;3.95;;;;;;;21.96;27.06;100911.33;1364601;90;21433;-82
2022/04/30 11:29:35;;;;;;;6.15;3.50;;;;;;;21.88;27.16;100912.89;1371850;90;21177;-83
2022/04/30 11:32:03;;;;;;;6.70;2.98;;;;;;;21.55;26.51;100908.39;1355214;89;21507;-82
2022/04/30 11:34:31;;;;;;;7.90;4.15;;;;;;;21.55;27.23;100908.88;1383495;89;21450;-82
2022/04/30 11:37:00;;;;;;;5.17;3.02;;;;;;;21.66;27.73;100898.00;1387839;89;21365;-82
2022/04/30 11:39:28;;;;;;;9.08;3.40;;;;;;;21.75;27.78;100904.33;1370032;88;22464;-82
2022/04/30 11:41:57;;;;;;;39.58;7.10;;;;;;;21.91;28.02;100885.52;1367644;90;21376;-82
2022/04/30 11:44:27;;;;;;;6.62;3.35;;;;;;;21.91;28.02;100885.52;1374881;90;21427;-82
2022/04/30 11:46:54;;;;;;;;;;;;;;;21.90;24.81;100894.66;1377698;89;21376;-82
2022/04/30 11:49:25;;;;;;;5.45;3.62;;;;;;;21.89;26.75;100878.69;1374981;90;20241;-82
2022/04/30 11:51:56;;;;;;;5.60;3.40;;;;;;;22.09;26.00;100880.27;1375391;90;21361;-82
2022/04/30 11:54:25;;;;;;;3.33;2.83;;;;;;;22.09;26.00;100880.27;1375626;90;21388;-83
2022/04/30 11:56:52;;;;;;;8.45;3.52;;;;;;;22.38;26.32;100881.34;1366175;90;21404;-82
2022/04/30 11:59:38;;;;;;;5.67;3.50;;;;;;;22.76;26.23;100881.37;1377683;89;21266;-82
2022/04/30 12:02:08;;;;;;;4.37;3.67;;;;;;;23.22;26.49;100873.99;1377293;89;21279;-82
2022/04/30 12:04:41;;;;;;;5.15;3.30;;;;;;;23.51;25.21;100877.92;1377364;89;21376;-82
2022/04/30 12:07:10;;;;;;;7.03;3.30;;;;;;;23.61;24.09;100868.77;1377101;90;21471;-82
2022/04/30 12:09:40;;;;;;;5.92;3.85;;;;;;;23.81;25.34;100865.36;1377246;89;21544;-83
2022/04/30 12:12:16;;;;;;;;;;;;;;;23.75;25.37;100863.56;1379731;89;21316;-82
2022/04/30 12:14:46;;;;;;;9.00;3.10;;;;;;;23.86;23.74;100859.30;1377160;89;20253;-82
2022/04/30 12:17:13;;;;;;;5.72;3.47;;;;;;;24.18;26.20;100858.61;1376957;89;21523;-82
2022/04/30 12:25:19;;;;;;;6.75;3.08;;;;;;;23.96;25.66;100861.47;1358463;91;21259;-83
2022/04/30 12:27:59;;;;;;;4.33;3.00;;;;;;;24.00;26.14;100860.80;1361998;92;21443;-84
2022/04/30 12:30:28;;;;;;;4.90;3.10;;;;;;;23.93;24.93;100865.97;1372065;90;21364;-84
2022/04/30 12:33:03;;;;;;;5.22;3.47;;;;;;;23.84;24.61;100856.80;1375567;88;21216;-84
2022/04/30 12:35:40;;;;;;;7.08;3.30;;;;;;;23.64;23.49;100854.28;1374881;89;21217;-84
2022/04/30 12:38:13;;;;;;;4.92;3.12;;;;;;;23.32;25.44;100856.26;1375340;89;21238;-84
2022/04/30 12:40:45;;;;;;;6.17;3.00;;;;;;;23.02;24.47;100856.60;1358586;91;21276;-84
2022/04/30 12:43:12;;;;;;;7.25;3.65;;;;;;;22.86;25.39;100853.37;1375678;89;21379;-84
2022/04/30 12:45:44;;;;;;;8.30;3.02;;;;;;;22.44;25.01;100848.97;1375404;89;21379;-84
2022/04/30 12:48:11;;;;;;;4.87;3.00;;;;;;;22.26;25.07;100850.19;1375112;89;22339;-84
2022/04/30 12:50:39;;;;;;;5.87;3.25;;;;;;;22.18;24.17;100845.03;1375510;89;21444;-84
2022/04/30 12:53:09;;;;;;;4.40;3.37;;;;;;;22.04;24.44;100838.33;1375219;89;21328;-84
2022/04/30 12:55:38;;;;;;;;;;;;;;;22.19;24.32;100834.58;1377649;89;21423;-83
2022/04/30 12:58:06;;;;;;;6.53;3.08;;;;;;;22.49;24.01;100833.48;1372596;90;20300;-79
2022/04/30 13:00:34;;;;;;;20.80;3.72;;;;;;;22.80;25.47;100834.01;1355631;91;21295;-80
2022/04/30 13:03:02;;;;;;;3.92;3.27;;;;;;;23.04;24.60;100831.58;1355631;91;21347;-85